Observation data for Lamesa on 11/19/2019      Previous  Date       Current Mesonet Observations  Soil Data  Daily Summary Page  Observations in Plain Language
KLES 190600Z 06002KT 09/01 A2998 RMK A01 T00890005  RH  056%=      5-min Rain = 0
KLES 190605Z 04002KT 08/01 A2998 RMK A01 T00840006  RH  058%=      5-min Rain = 0
KLES 190610Z 04002KT 09/01 A2998 RMK A01 T00860007  RH  058%=      5-min Rain = 0
KLES 190615Z 04002KT 09/01 A2998 RMK A01 T00890007  RH  057%=      5-min Rain = 0
KLES 190620Z 04003KT 09/01 A2998 RMK A01 T00880007  RH  058%=      5-min Rain = 0
KLES 190625Z 04002KT 09/01 A2998 RMK A01 T00880007  RH  057%=      5-min Rain = 0
KLES 190630Z 03003KT 09/01 A2998 RMK A01 T00870007  RH  058%=      5-min Rain = 0
KLES 190635Z 03004KT 09/01 A2997 RMK A01 T00880007  RH  058%=      5-min Rain = 0
KLES 190640Z 04004KT 09/01 A2997 RMK A01 T00870006  RH  058%=      5-min Rain = 0
KLES 190645Z 03004KT 09/01 A2997 RMK A01 T00890006  RH  057%=      5-min Rain = 0
KLES 190650Z 04003KT 09/01 A2997 RMK A01 T00900007  RH  056%=      5-min Rain = 0
KLES 190655Z 04003KT 09/01 A2997 RMK A01 T00910006  RH  056%=      5-min Rain = 0
KLES 190700Z 04004KT 09/01 A2997 RMK A01 T00900007  RH  057%=      5-min Rain = 0
KLES 190705Z 03005KT 09/01 A2997 RMK A01 T00860008  RH  059%=      5-min Rain = 0
KLES 190710Z 03005KT 08/01 A2997 RMK A01 T00840009  RH  060%=      5-min Rain = 0
KLES 190715Z 02005KT 08/01 A2997 RMK A01 T00830009  RH  061%=      5-min Rain = 0
KLES 190720Z 02004KT 08/01 A2997 RMK A01 T00840010  RH  061%=      5-min Rain = 0
KLES 190725Z 02003KT 09/01 A2997 RMK A01 T00850010  RH  060%=      5-min Rain = 0
KLES 190730Z 01002KT 08/01 A2997 RMK A01 T00840010  RH  061%=      5-min Rain = 0
KLES 190735Z 02003KT 08/01 A2998 RMK A01 T00830011  RH  061%=      5-min Rain = 0
KLES 190740Z 00001KT 08/01 A2998 RMK A01 T00830011  RH  061%=      5-min Rain = 0
KLES 190745Z 36000KT 08/01 A2998 RMK A01 T00800012  RH  063%=      5-min Rain = 0
KLES 190750Z 00000KT 08/01 A2998 RMK A01 T00770011  RH  064%=      5-min Rain = 0
KLES 190755Z 00000KT 07/01 A2998 RMK A01 T00720008  RH  065%=      5-min Rain = 0
KLES 190800Z 36001KT 07/01 A2998 RMK A01 T00690008  RH  066%=      5-min Rain = 0
KLES 190805Z 02001KT 07/01 A2998 RMK A01 T00680009  RH  067%=      5-min Rain = 0
KLES 190810Z 02002KT 07/01 A2998 RMK A01 T00670010  RH  068%=      5-min Rain = 0
KLES 190815Z 02002KT 07/01 A2998 RMK A01 T00710012  RH  067%=      5-min Rain = 0
KLES 190820Z 02003KT 07/01 A2998 RMK A01 T00720011  RH  066%=      5-min Rain = 0
KLES 190825Z 03002KT 07/01 A2998 RMK A01 T00720010  RH  066%=      5-min Rain = 0
KLES 190830Z 02003KT 07/01 A2998 RMK A01 T00730012  RH  066%=      5-min Rain = 0
KLES 190835Z 01004KT 08/01 A2998 RMK A01 T00750011  RH  065%=      5-min Rain = 0
KLES 190840Z 01004KT 07/01 A2998 RMK A01 T00740011  RH  065%=      5-min Rain = 0
KLES 190845Z 01004KT 07/01 A2998 RMK A01 T00700011  RH  067%=      5-min Rain = 0
KLES 190850Z 00003KT 07/01 A2998 RMK A01 T00680012  RH  068%=      5-min Rain = 0
KLES 190855Z 01003KT 07/01 A2998 RMK A01 T00680012  RH  069%=      5-min Rain = 0
KLES 190900Z 01003KT 07/01 A2998 RMK A01 T00700012  RH  067%=      5-min Rain = 0
KLES 190905Z 01002KT 07/01 A2998 RMK A01 T00690011  RH  067%=      5-min Rain = 0
KLES 190910Z 02003KT 07/01 A2997 RMK A01 T00670011  RH  068%=      5-min Rain = 0
KLES 190915Z 01002KT 07/01 A2997 RMK A01 T00680011  RH  068%=      5-min Rain = 0
KLES 190920Z 02004KT 07/01 A2997 RMK A01 T00690012  RH  068%=      5-min Rain = 0
KLES 190925Z 01002KT 07/01 A2997 RMK A01 T00700011  RH  067%=      5-min Rain = 0
KLES 190930Z 02003KT 07/01 A2997 RMK A01 T00670011  RH  068%=      5-min Rain = 0
KLES 190935Z 01002KT 07/01 A2997 RMK A01 T00660010  RH  069%=      5-min Rain = 0
KLES 190940Z 01003KT 07/01 A2997 RMK A01 T00650012  RH  070%=      5-min Rain = 0
KLES 190945Z 00003KT 07/01 A2997 RMK A01 T00690013  RH  069%=      5-min Rain = 0
KLES 190950Z 35003KT 07/01 A2997 RMK A01 T00690012  RH  068%=      5-min Rain = 0
KLES 190955Z 34003KT 07/01 A2997 RMK A01 T00680012  RH  068%=      5-min Rain = 0
KLES 191000Z 34003KT 06/01 A2997 RMK A01 T00620011  RH  071%=      5-min Rain = 0
KLES 191005Z 34002KT 06/01 A2997 RMK A01 T00630012  RH  071%=      5-min Rain = 0
KLES 191010Z 34003KT 07/01 A2997 RMK A01 T00690013  RH  068%=      5-min Rain = 0
KLES 191015Z 32004KT 07/01 A2997 RMK A01 T00660011  RH  069%=      5-min Rain = 0
KLES 191020Z 30006KT 06/01 A2997 RMK A01 T00590011  RH  072%=      5-min Rain = 0
KLES 191025Z 31006KT 06/01 A2997 RMK A01 T00550011  RH  074%=      5-min Rain = 0
KLES 191030Z 31005KT 05/01 A2997 RMK A01 T00520010  RH  076%=      5-min Rain = 0
KLES 191035Z 32005KT 05/01 A2997 RMK A01 T00490010  RH  077%=      5-min Rain = 0
KLES 191040Z 32005KT 05/01 A2996 RMK A01 T00470010  RH  078%=      5-min Rain = 0
KLES 191045Z 33004KT 05/01 A2996 RMK A01 T00450009  RH  078%=      5-min Rain = 0
KLES 191050Z 35003KT 04/01 A2996 RMK A01 T00440009  RH  079%=      5-min Rain = 0
KLES 191055Z 01002KT 04/01 A2996 RMK A01 T00430010  RH  080%=      5-min Rain = 0
KLES 191100Z 01003KT 04/01 A2996 RMK A01 T00420009  RH  080%=      5-min Rain = 0
KLES 191105Z 00002KT 04/01 A2996 RMK A01 T00420009  RH  080%=      5-min Rain = 0
KLES 191110Z 00002KT 04/01 A2996 RMK A01 T00400008  RH  081%=      5-min Rain = 0
KLES 191115Z 34003KT 04/01 A2996 RMK A01 T00410010  RH  081%=      5-min Rain = 0
KLES 191120Z 33001KT 04/01 A2996 RMK A01 T00440013  RH  081%=      5-min Rain = 0
KLES 191125Z 34002KT 05/01 A2996 RMK A01 T00450013  RH  081%=      5-min Rain = 0
KLES 191130Z 33002KT 05/01 A2996 RMK A01 T00450013  RH  081%=      5-min Rain = 0
KLES 191135Z 33000KT 05/01 A2996 RMK A01 T00450012  RH  081%=      5-min Rain = 0
KLES 191140Z 33002KT 04/01 A2996 RMK A01 T00440013  RH  081%=      5-min Rain = 0
KLES 191145Z 33002KT 05/01 A2996 RMK A01 T00450014  RH  081%=      5-min Rain = 0
KLES 191150Z 33001KT 04/01 A2996 RMK A01 T00430010  RH  081%=      5-min Rain = 0
KLES 191155Z 33000KT 04/01 A2996 RMK A01 T00390008  RH  081%=      5-min Rain = 0
KLES 191200Z 33001KT 04/01 A2996 RMK A01 T00380009  RH  082%=      5-min Rain = 0
KLES 191205Z 33000KT 04/01 A2996 RMK A01 T00390011  RH  083%=      5-min Rain = 0
KLES 191210Z 18002KT 04/01 A2997 RMK A01 T00400012  RH  083%=      5-min Rain = 0
KLES 191215Z 18001KT 04/01 A2996 RMK A01 T00390011  RH  083%=      5-min Rain = 0
KLES 191220Z 18000KT 04/01 A2996 RMK A01 T00380011  RH  083%=      5-min Rain = 0
KLES 191225Z 00000KT 04/01 A2996 RMK A01 T00380010  RH  083%=      5-min Rain = 0
KLES 191230Z 00000KT 04/01 A2997 RMK A01 T00370010  RH  084%=      5-min Rain = 0
KLES 191235Z 18000KT 04/01 A2997 RMK A01 T00370011  RH  084%=      5-min Rain = 0
KLES 191240Z 18000KT 04/01 A2997 RMK A01 T00370012  RH  085%=      5-min Rain = 0
KLES 191245Z 18000KT 04/01 A2997 RMK A01 T00380013  RH  085%=      5-min Rain = 0
KLES 191250Z 18000KT 04/01 A2997 RMK A01 T00360011  RH  085%=      5-min Rain = 0
KLES 191255Z 18000KT 03/01 A2997 RMK A01 T00340009  RH  085%=      5-min Rain = 0
KLES 191300Z 18002KT 03/01 A2997 RMK A01 T00320008  RH  085%=      5-min Rain = 0
KLES 191305Z 18001KT 03/01 A2997 RMK A01 T00340011  RH  086%=      5-min Rain = 0
KLES 191310Z 18001KT 03/01 A2997 RMK A01 T00340010  RH  086%=      5-min Rain = 0
KLES 191315Z 18001KT 03/01 A2997 RMK A01 T00330010  RH  086%=      5-min Rain = 0
KLES 191320Z 00000KT 03/01 A2998 RMK A01 T00320009  RH  086%=      5-min Rain = 0
KLES 191325Z 17000KT 03/01 A2998 RMK A01 T00330011  RH  087%=      5-min Rain = 0
KLES 191330Z 16000KT 03/01 A2998 RMK A01 T00330011  RH  087%=      5-min Rain = 0
KLES 191335Z 16000KT 03/01 A2998 RMK A01 T00320010  RH  086%=      5-min Rain = 0
KLES 191340Z 00000KT 03/01 A2998 RMK A01 T00330011  RH  087%=      5-min Rain = 0
KLES 191345Z 00000KT 04/01 A2998 RMK A01 T00350014  RH  087%=      5-min Rain = 0
KLES 191350Z 00000KT 04/02 A2998 RMK A01 T00400018  RH  087%=      5-min Rain = 0
KLES 191355Z 16000KT 04/02 A2998 RMK A01 T00430020  RH  086%=      5-min Rain = 0
KLES 191400Z 15001KT 05/02 A2998 RMK A01 T00450020  RH  085%=      5-min Rain = 0
KLES 191405Z 15001KT 05/02 A2998 RMK A01 T00470020  RH  084%=      5-min Rain = 0
KLES 191410Z 15001KT 05/02 A2999 RMK A01 T00510024  RH  084%=      5-min Rain = 0
KLES 191415Z 15001KT 06/03 A2999 RMK A01 T00580028  RH  082%=      5-min Rain = 0
KLES 191420Z 15001KT 06/02 A2999 RMK A01 T00610024  RH  079%=      5-min Rain = 0
KLES 191425Z 15003KT 06/02 A2999 RMK A01 T00600022  RH  078%=      5-min Rain = 0
KLES 191430Z 16003KT 06/02 A2999 RMK A01 T00600023  RH  078%=      5-min Rain = 0
KLES 191435Z 16003KT 07/03 A2999 RMK A01 T00670032  RH  080%=      5-min Rain = 0
KLES 191440Z 16004KT 08/04 A2999 RMK A01 T00780038  RH  077%=      5-min Rain = 0
KLES 191445Z 17004KT 09/03 A2999 RMK A01 T00850034  RH  072%=      5-min Rain = 0
KLES 191450Z 18005KT 09/03 A2999 RMK A01 T00900032  RH  068%=      5-min Rain = 0
KLES 191455Z 19006KT 10/04 A2999 RMK A01 T00960035  RH  067%=      5-min Rain = 0
KLES 191500Z 19007KT 10/04 A2999 RMK A01 T01020038  RH  066%=      5-min Rain = 0
KLES 191505Z 19007KT 11/04 A2999 RMK A01 T01080040  RH  064%=      5-min Rain = 0
KLES 191510Z 19008KT 11/04 A2999 RMK A01 T01120041  RH  062%=      5-min Rain = 0
KLES 191515Z 20009KT 12/04 A2999 RMK A01 T01150041  RH  061%=      5-min Rain = 0
KLES 191520Z 20008KT 12/04 A2999 RMK A01 T01150041  RH  061%=      5-min Rain = 0
KLES 191525Z 21008KT 12/04 A2999 RMK A01 T01160042  RH  062%=      5-min Rain = 0
KLES 191530Z 21008KT 12/04 A2999 RMK A01 T01160042  RH  062%=      5-min Rain = 0
KLES 191535Z 21007KT 12/04 A2999 RMK A01 T01190043  RH  061%=      5-min Rain = 0
KLES 191540Z 21007KT 12/05 A2999 RMK A01 T01220045  RH  060%=      5-min Rain = 0
KLES 191545Z 20007KT 13/05 A2999 RMK A01 T01260047  RH  060%=      5-min Rain = 0
KLES 191550Z 20007KT 13/05 A2999 RMK A01 T01320048  RH  058%=      5-min Rain = 0
KLES 191555Z 20006KT 14/05 A2999 RMK A01 T01360050  RH  057%=      5-min Rain = 0
KLES 191600Z 20008KT 14/05 A2999 RMK A01 T01430052  RH  056%=      5-min Rain = 0
KLES 191605Z 20011KT 15/05 A2999 RMK A01 T01490051  RH  053%=      5-min Rain = 0
KLES 191610Z 21008KT 15/05 A2999 RMK A01 T01520052  RH  052%=      5-min Rain = 0
KLES 191615Z 20008KT 16/05 A2999 RMK A01 T01560052  RH  051%=      5-min Rain = 0
KLES 191620Z 21008KT 16/05 A2999 RMK A01 T01560050  RH  050%=      5-min Rain = 0
KLES 191625Z 21008KT 16/05 A2999 RMK A01 T01580051  RH  050%=      5-min Rain = 0
KLES 191630Z 21007KT 16/05 A2999 RMK A01 T01630053  RH  049%=      5-min Rain = 0
KLES 191635Z 20010KT 17/05 A2998 RMK A01 T01660050  RH  047%=      5-min Rain = 0
KLES 191640Z 20008KT 17/05 A2998 RMK A01 T01680051  RH  047%=      5-min Rain = 0
KLES 191645Z 22008KT 17/05 A2998 RMK A01 T01710051  RH  046%=      5-min Rain = 0
KLES 191650Z 21007KT 17/05 A2998 RMK A01 T01720051  RH  046%=      5-min Rain = 0
KLES 191655Z 21007KT 17/05 A2998 RMK A01 T01740053  RH  046%=      5-min Rain = 0
KLES 191700Z 21007KT 18/05 A2998 RMK A01 T01790052  RH  044%=      5-min Rain = 0
KLES 191705Z 20007KT 18/05 A2998 RMK A01 T01840051  RH  043%=      5-min Rain = 0
KLES 191710Z 19007KT 19/05 A2997 RMK A01 T01870050  RH  041%=      5-min Rain = 0
KLES 191715Z 21007KT 19/05 A2997 RMK A01 T01900051  RH  041%=      5-min Rain = 0
KLES 191720Z 20007KT 20/05 A2997 RMK A01 T01960049  RH  039%=      5-min Rain = 0
KLES 191725Z 20007KT 20/05 A2997 RMK A01 T01980048  RH  038%=      5-min Rain = 0
KLES 191730Z 19008KT 20/04 A2996 RMK A01 T02020042  RH  035%=      5-min Rain = 0
KLES 191735Z 19007KT 21/04 A2996 RMK A01 T02080044  RH  035%=      5-min Rain = 0
KLES 191740Z 18008KT 21/05 A2996 RMK A01 T02120046  RH  034%=      5-min Rain = 0
KLES 191745Z 18009KT 21/04 A2996 RMK A01 T02130042  RH  033%=      5-min Rain = 0
KLES 191750Z 18009KT 22/04 A2996 RMK A01 T02160040  RH  032%=      5-min Rain = 0
KLES 191755Z 17010KT 22/04 A2995 RMK A01 T02170037  RH  031%=      5-min Rain = 0
KLES 191800Z 18009KT 22/03 A2995 RMK A01 T02200033  RH  030%=      5-min Rain = 0
KLES 191805Z 18011KT 22/03 A2995 RMK A01 T02230028  RH  028%=      5-min Rain = 0
KLES 191810Z 18009KT 23/03 A2994 RMK A01 T02270028  RH  028%=      5-min Rain = 0
KLES 191815Z 17010KT 23/03 A2994 RMK A01 T02280028  RH  027%=      5-min Rain = 0
KLES 191820Z 18011KT 23/02 A2994 RMK A01 T02300023  RH  026%=      5-min Rain = 0
KLES 191825Z 18011KT 23/02 A2993 RMK A01 T02340017  RH  024%=      5-min Rain = 0
KLES 191830Z 18013KT 24/01 A2993 RMK A01 T02370011  RH  023%=      5-min Rain = 0
KLES 191835Z 18013G18KT 23/01 A2993 RMK A01 T02340010  RH  023%=      5-min Rain = 0
KLES 191840Z 18011G19KT 24/01 A2992 RMK A01 T02380012  RH  023%=      5-min Rain = 0
KLES 191845Z 17013KT 24/01 A2992 RMK A01 T02400007  RH  022%=      5-min Rain = 0
KLES 191850Z 19012G17KT 24/01 A2992 RMK A01 T02420006  RH  022%=      5-min Rain = 0
KLES 191855Z 18010G15KT 24/01 A2992 RMK A01 T02430009  RH  022%=      5-min Rain = 0
KLES 191900Z 18012KT 24/01 A2991 RMK A01 T02440008  RH  021%=      5-min Rain = 0
KLES 191905Z 17014KT 24/01 A2991 RMK A01 T02440008  RH  021%=      5-min Rain = 0
KLES 191910Z 18012KT 25/01 A2991 RMK A01 T02450008  RH  021%=      5-min Rain = 0
KLES 191915Z 18012G17KT 25/01 A299 RMK A01 T02470009  RH  021%=      5-min Rain = 0
KLES 191920Z 19012G17KT 25/01 A299 RMK A01 T02480009  RH  021%=      5-min Rain = 0
KLES 191925Z 19011G16KT 25/01 A299 RMK A01 T02500011  RH  021%=      5-min Rain = 0
KLES 191930Z 19012G17KT 25/01 A2989 RMK A01 T02500011  RH  021%=      5-min Rain = 0
KLES 191935Z 18011G16KT 25/01 A2989 RMK A01 T02500010  RH  021%=      5-min Rain = 0
KLES 191940Z 17012G17KT 25/01 A2989 RMK A01 T02500008  RH  021%=      5-min Rain = 0
KLES 191945Z 18010G16KT 25/01 A2988 RMK A01 T02520010  RH  021%=      5-min Rain = 0
KLES 191950Z 18013KT 25/01 A2988 RMK A01 T02520008  RH  021%=      5-min Rain = 0
KLES 191955Z 17012KT 25/01 A2988 RMK A01 T02510009  RH  021%=      5-min Rain = 0
KLES 192000Z 19010G15KT 25/01 A2988 RMK A01 T02520011  RH  021%=      5-min Rain = 0
KLES 192005Z 21011KT 25/M00 A2987 RMK A01 T02511002  RH  019%=      5-min Rain = 0
KLES 192010Z 19012KT 25/00 A2987 RMK A01 T02530001  RH  019%=      5-min Rain = 0
KLES 192015Z 20012KT 25/00 A2987 RMK A01 T02490001  RH  020%=      5-min Rain = 0
KLES 192020Z 19011KT 24/M00 A2987 RMK A01 T02441001  RH  020%=      5-min Rain = 0
KLES 192025Z 19012G17KT 25/M00 A2987 RMK A01 T02501001  RH  019%=      5-min Rain = 0
KLES 192030Z 18013KT 26/M01 A2986 RMK A01 T02551005  RH  018%=      5-min Rain = 0
KLES 192035Z 20012G17KT 26/M01 A2986 RMK A01 T02551007  RH  018%=      5-min Rain = 0
KLES 192040Z 20011KT 25/M01 A2986 RMK A01 T02531006  RH  018%=      5-min Rain = 0
KLES 192045Z 19011KT 26/M01 A2986 RMK A01 T02561008  RH  018%=      5-min Rain = 0
KLES 192050Z 20011G16KT 26/M01 A2986 RMK A01 T02561005  RH  018%=      5-min Rain = 0
KLES 192055Z 19011KT 26/M01 A2986 RMK A01 T02581006  RH  018%=      5-min Rain = 0
KLES 192100Z 20012KT 26/M01 A2986 RMK A01 T02571006  RH  018%=      5-min Rain = 0
KLES 192105Z 20013KT 26/M01 A2985 RMK A01 T02551007  RH  018%=      5-min Rain = 0
KLES 192110Z 19010KT 25/M01 A2985 RMK A01 T02531008  RH  018%=      5-min Rain = 0
KLES 192115Z 20012G18KT 26/M01 A2985 RMK A01 T02571008  RH  018%=      5-min Rain = 0
KLES 192120Z 20014KT 26/M01 A2985 RMK A01 T02571009  RH  017%=      5-min Rain = 0
KLES 192125Z 19014KT 26/M01 A2985 RMK A01 T02591011  RH  017%=      5-min Rain = 0
KLES 192130Z 19013KT 26/M01 A2985 RMK A01 T02591011  RH  017%=      5-min Rain = 0
KLES 192135Z 19012KT 26/M01 A2985 RMK A01 T02591014  RH  017%=      5-min Rain = 0
KLES 192140Z 18012G17KT 26/M02 A2984 RMK A01 T02581016  RH  016%=      5-min Rain = 0
KLES 192145Z 19011KT 26/M01 A2984 RMK A01 T02551014  RH  017%=      5-min Rain = 0
KLES 192150Z 19011KT 25/M01 A2984 RMK A01 T02491014  RH  018%=      5-min Rain = 0
KLES 192155Z 18013KT 25/M01 A2984 RMK A01 T02461013  RH  018%=      5-min Rain = 0
KLES 192200Z 19010KT 24/M01 A2984 RMK A01 T02431011  RH  019%=      5-min Rain = 0
KLES 192205Z 18010KT 24/M01 A2984 RMK A01 T02421010  RH  019%=      5-min Rain = 0
KLES 192210Z 18010KT 25/M01 A2984 RMK A01 T02461010  RH  019%=      5-min Rain = 0
KLES 192215Z 18010KT 25/M01 A2984 RMK A01 T02481009  RH  018%=      5-min Rain = 0
KLES 192220Z 17009KT 24/M01 A2984 RMK A01 T02441009  RH  019%=      5-min Rain = 0
KLES 192225Z 18010KT 25/M01 A2984 RMK A01 T02481007  RH  019%=      5-min Rain = 0
KLES 192230Z 17009KT 25/M00 A2984 RMK A01 T02531004  RH  019%=      5-min Rain = 0
KLES 192235Z 17009KT 26/M00 A2984 RMK A01 T02551001  RH  019%=      5-min Rain = 0
KLES 192240Z 17011KT 25/M00 A2983 RMK A01 T02531001  RH  019%=      5-min Rain = 0
KLES 192245Z 17009KT 25/00 A2984 RMK A01 T02500003  RH  020%=      5-min Rain = 0
KLES 192250Z 17008KT 25/01 A2983 RMK A01 T02490005  RH  020%=      5-min Rain = 0
KLES 192255Z 17008KT 25/01 A2983 RMK A01 T02460006  RH  021%=      5-min Rain = 0
KLES 192300Z 17008KT 24/01 A2983 RMK A01 T02400007  RH  022%=      5-min Rain = 0
KLES 192305Z 17008KT 23/01 A2983 RMK A01 T02340007  RH  023%=      5-min Rain = 0
KLES 192310Z 17008KT 23/00 A2983 RMK A01 T02320003  RH  022%=      5-min Rain = 0
KLES 192315Z 18008KT 23/M00 A2983 RMK A01 T02271001  RH  022%=      5-min Rain = 0
KLES 192320Z 18007KT 22/M00 A2983 RMK A01 T02191001  RH  023%=      5-min Rain = 0
KLES 192325Z 18007KT 21/00 A2983 RMK A01 T021100-0  RH  025%=      5-min Rain = 0
KLES 192330Z 18007KT 21/00 A2984 RMK A01 T02050001  RH  026%=      5-min Rain = 0
KLES 192335Z 17007KT 20/00 A2984 RMK A01 T01990001  RH  027%=      5-min Rain = 0
KLES 192340Z 18006KT 19/00 A2984 RMK A01 T01930000  RH  028%=      5-min Rain = 0
KLES 192345Z 17006KT 19/00 A2984 RMK A01 T018900-0  RH  028%=      5-min Rain = 0
KLES 192350Z 17007KT 19/00 A2984 RMK A01 T01850002  RH  029%=      5-min Rain = 0
KLES 192355Z 17007KT 18/00 A2984 RMK A01 T01820003  RH  030%=      5-min Rain = 0
KLES 200000Z 16006KT 18/00 A2984 RMK A01 T01790003  RH  031%=      5-min Rain = 0
KLES 200005Z 17006KT 17/00 A2983 RMK A01 T01740003  RH  032%=      5-min Rain = 0
KLES 200010Z 16006KT 17/00 A2983 RMK A01 T01680002  RH  033%=      5-min Rain = 0
KLES 200015Z 17006KT 17/00 A2983 RMK A01 T01650003  RH  034%=      5-min Rain = 0
KLES 200020Z 17007KT 16/00 A2984 RMK A01 T01640004  RH  034%=      5-min Rain = 0
KLES 200025Z 17007KT 16/01 A2983 RMK A01 T01640008  RH  035%=      5-min Rain = 0
KLES 200030Z 17007KT 17/01 A2983 RMK A01 T01650009  RH  035%=      5-min Rain = 0
KLES 200035Z 17007KT 17/01 A2984 RMK A01 T01650009  RH  035%=      5-min Rain = 0
KLES 200040Z 16007KT 16/01 A2984 RMK A01 T01630010  RH  036%=      5-min Rain = 0
KLES 200045Z 16007KT 16/01 A2984 RMK A01 T01620011  RH  037%=      5-min Rain = 0
KLES 200050Z 16007KT 16/01 A2984 RMK A01 T01640013  RH  036%=      5-min Rain = 0
KLES 200055Z 17008KT 17/01 A2984 RMK A01 T01670013  RH  036%=      5-min Rain = 0
KLES 200100Z 16008KT 17/01 A2984 RMK A01 T01690014  RH  036%=      5-min Rain = 0
KLES 200105Z 16007KT 17/01 A2984 RMK A01 T01700014  RH  035%=      5-min Rain = 0
KLES 200110Z 17007KT 17/02 A2984 RMK A01 T01670015  RH  036%=      5-min Rain = 0
KLES 200115Z 16007KT 17/02 A2984 RMK A01 T01650016  RH  037%=      5-min Rain = 0
KLES 200120Z 16008KT 17/02 A2985 RMK A01 T01650017  RH  037%=      5-min Rain = 0
KLES 200125Z 16008KT 16/02 A2985 RMK A01 T01640020  RH  038%=      5-min Rain = 0
KLES 200130Z 16008KT 16/02 A2985 RMK A01 T01640023  RH  039%=      5-min Rain = 0
KLES 200135Z 17008KT 16/03 A2985 RMK A01 T01630025  RH  040%=      5-min Rain = 0
KLES 200140Z 17008KT 16/03 A2985 RMK A01 T01620028  RH  041%=      5-min Rain = 0
KLES 200145Z 17008KT 16/03 A2985 RMK A01 T01630032  RH  042%=      5-min Rain = 0
KLES 200150Z 17009KT 17/04 A2985 RMK A01 T01660037  RH  043%=      5-min Rain = 0
KLES 200155Z 17011KT 17/04 A2986 RMK A01 T01710044  RH  044%=      5-min Rain = 0
KLES 200200Z 17011KT 18/05 A2986 RMK A01 T01770048  RH  043%=      5-min Rain = 0
KLES 200205Z 17010G15KT 18/05 A2985 RMK A01 T01800051  RH  043%=      5-min Rain = 0
KLES 200210Z 17010KT 18/05 A2985 RMK A01 T01790053  RH  044%=      5-min Rain = 0
KLES 200215Z 17009KT 18/06 A2985 RMK A01 T01780055  RH  045%=      5-min Rain = 0
KLES 200220Z 17009KT 18/06 A2985 RMK A01 T01770056  RH  046%=      5-min Rain = 0
KLES 200225Z 17009KT 18/06 A2985 RMK A01 T01760058  RH  047%=      5-min Rain = 0
KLES 200230Z 17008KT 17/06 A2985 RMK A01 T01740059  RH  048%=      5-min Rain = 0
KLES 200235Z 17009KT 17/06 A2985 RMK A01 T01720060  RH  049%=      5-min Rain = 0
KLES 200240Z 17009KT 17/06 A2985 RMK A01 T01710061  RH  049%=      5-min Rain = 0
KLES 200245Z 17010KT 17/06 A2985 RMK A01 T01720061  RH  049%=      5-min Rain = 0
KLES 200250Z 17010KT 17/06 A2986 RMK A01 T01730062  RH  049%=      5-min Rain = 0
KLES 200255Z 17009KT 17/06 A2986 RMK A01 T01720062  RH  049%=      5-min Rain = 0
KLES 200300Z 17009KT 17/06 A2986 RMK A01 T01700062  RH  050%=      5-min Rain = 0
KLES 200305Z 17009KT 17/06 A2986 RMK A01 T01690063  RH  051%=      5-min Rain = 0
KLES 200310Z 17009KT 17/06 A2986 RMK A01 T01680063  RH  051%=      5-min Rain = 0
KLES 200315Z 17009KT 17/06 A2986 RMK A01 T01660064  RH  052%=      5-min Rain = 0
KLES 200320Z 17008KT 17/06 A2986 RMK A01 T01650064  RH  052%=      5-min Rain = 0
KLES 200325Z 17008KT 16/06 A2986 RMK A01 T01640064  RH  053%=      5-min Rain = 0
KLES 200330Z 17009KT 16/07 A2986 RMK A01 T01630065  RH  054%=      5-min Rain = 0
KLES 200335Z 17010KT 16/07 A2986 RMK A01 T01640066  RH  054%=      5-min Rain = 0
KLES 200340Z 17010KT 16/07 A2986 RMK A01 T01640067  RH  054%=      5-min Rain = 0
KLES 200345Z 17010KT 16/07 A2986 RMK A01 T01640068  RH  055%=      5-min Rain = 0
KLES 200350Z 17010KT 16/07 A2986 RMK A01 T01640070  RH  055%=      5-min Rain = 0
KLES 200355Z 17009G15KT 16/07 A2986 RMK A01 T01630071  RH  056%=      5-min Rain = 0
KLES 200400Z 17010G15KT 16/07 A2986 RMK A01 T01620071  RH  056%=      5-min Rain = 0
KLES 200405Z 17010KT 16/07 A2986 RMK A01 T01620072  RH  057%=      5-min Rain = 0
KLES 200410Z 18010KT 16/07 A2986 RMK A01 T01600073  RH  058%=      5-min Rain = 0
KLES 200415Z 17011G16KT 16/07 A2986 RMK A01 T01610074  RH  058%=      5-min Rain = 0
KLES 200420Z 17012KT 16/08 A2986 RMK A01 T01610075  RH  058%=      5-min Rain = 0
KLES 200425Z 17012KT 16/08 A2986 RMK A01 T01600076  RH  059%=      5-min Rain = 0
KLES 200430Z 17011KT 16/08 A2986 RMK A01 T01600077  RH  060%=      5-min Rain = 0
KLES 200435Z 17012KT 16/08 A2986 RMK A01 T01590078  RH  060%=      5-min Rain = 0
KLES 200440Z 18011KT 16/08 A2986 RMK A01 T01580079  RH  061%=      5-min Rain = 0
KLES 200445Z 18012KT 16/08 A2987 RMK A01 T01570080  RH  062%=      5-min Rain = 0
KLES 200450Z 18012KT 16/08 A2986 RMK A01 T01570081  RH  062%=      5-min Rain = 0
KLES 200455Z 18012G17KT 16/08 A2986 RMK A01 T01570082  RH  063%=      5-min Rain = 0
KLES 200500Z 18012KT 16/08 A2986 RMK A01 T01560083  RH  063%=      5-min Rain = 0
KLES 200505Z 18012KT 16/08 A2986 RMK A01 T01560084  RH  064%=      5-min Rain = 0
KLES 200510Z 18011KT 16/08 A2986 RMK A01 T01550084  RH  064%=      5-min Rain = 0
KLES 200515Z 18011KT 16/09 A2986 RMK A01 T01550085  RH  065%=      5-min Rain = 0
KLES 200520Z 18012KT 15/09 A2986 RMK A01 T01540086  RH  066%=      5-min Rain = 0
KLES 200525Z 18012KT 16/09 A2986 RMK A01 T01550088  RH  066%=      5-min Rain = 0
KLES 200530Z 19012KT 16/09 A2987 RMK A01 T01560089  RH  066%=      5-min Rain = 0
KLES 200535Z 18010KT 16/09 A2986 RMK A01 T01550090  RH  067%=      5-min Rain = 0
KLES 200540Z 18010KT 16/09 A2986 RMK A01 T01550090  RH  067%=      5-min Rain = 0
KLES 200545Z 18010G15KT 15/09 A2986 RMK A01 T01540091  RH  068%=      5-min Rain = 0
KLES 200550Z 19010KT 16/09 A2986 RMK A01 T01550092  RH  068%=      5-min Rain = 0
KLES 200555Z 19010KT 16/09 A2986 RMK A01 T01550093  RH  069%=      5-min Rain = 0

Page generated in 0.0096 seconds.